createdAt,value
2018-11-11T00:00:58.787Z,94.00
2018-11-11T00:03:26.177Z,94.00
2018-11-11T00:05:53.565Z,93.80
2018-11-11T00:08:20.992Z,93.70
2018-11-11T00:10:48.398Z,93.60
2018-11-11T00:13:15.766Z,93.70
2018-11-11T00:15:43.158Z,93.80
2018-11-11T00:18:10.549Z,93.70
2018-11-11T00:20:37.970Z,93.60
2018-11-11T00:23:05.391Z,93.70
2018-11-11T00:25:33.054Z,93.80
2018-11-11T00:28:00.439Z,93.70
2018-11-11T00:30:27.790Z,93.80
2018-11-11T00:32:55.188Z,93.80
2018-11-11T00:35:22.544Z,93.70
2018-11-11T00:37:50.003Z,93.70
2018-11-11T00:40:17.387Z,93.80
2018-11-11T00:42:45.313Z,93.80
2018-11-11T00:45:13.608Z,93.90
2018-11-11T00:47:42.514Z,93.80
2018-11-11T00:50:16.483Z,93.90
2018-11-11T00:52:44.467Z,93.90
2018-11-11T00:55:13.589Z,93.90
2018-11-11T00:57:41.425Z,93.90
2018-11-11T01:00:11.861Z,93.80
2018-11-11T01:02:39.438Z,93.80
2018-11-11T01:05:07.572Z,93.80
2018-11-11T01:07:35.283Z,93.80
2018-11-11T01:10:02.960Z,93.60
2018-11-11T01:12:30.514Z,93.60
2018-11-11T01:14:57.869Z,93.60
2018-11-11T01:17:27.690Z,93.70
2018-11-11T01:19:55.093Z,93.80
2018-11-11T01:22:22.865Z,93.80
2018-11-11T01:24:50.245Z,93.80
2018-11-11T01:27:20.246Z,93.70
2018-11-11T01:29:54.895Z,93.80
2018-11-11T01:32:29.202Z,94.10
2018-11-11T01:34:56.962Z,94.10
2018-11-11T01:37:24.273Z,94.10
2018-11-11T01:39:51.657Z,94.20
2018-11-11T01:42:19.019Z,94.40
2018-11-11T01:44:46.397Z,94.20
2018-11-11T01:47:13.780Z,94.10
2018-11-11T01:49:41.213Z,94.00
2018-11-11T01:52:08.598Z,94.00
2018-11-11T01:54:35.987Z,94.00
2018-11-11T01:57:03.322Z,94.30
2018-11-11T01:59:30.698Z,94.10
2018-11-11T02:01:58.494Z,94.10
2018-11-11T02:04:25.882Z,94.00
2018-11-11T02:06:53.320Z,94.10
2018-11-11T02:09:20.695Z,94.20
2018-11-11T02:11:48.086Z,94.20
2018-11-11T02:14:15.432Z,94.20
2018-11-11T02:16:42.858Z,94.20
2018-11-11T02:19:10.258Z,94.20
2018-11-11T02:21:37.630Z,94.50
2018-11-11T02:24:04.949Z,94.40
2018-11-11T02:26:32.310Z,94.40
2018-11-11T02:28:59.658Z,94.40
2018-11-11T02:31:27.050Z,94.40
2018-11-11T02:33:54.377Z,94.30
2018-11-11T02:36:21.796Z,94.30
2018-11-11T02:38:49.144Z,94.30
2018-11-11T02:41:16.509Z,94.20
2018-11-11T02:43:43.887Z,94.20
2018-11-11T02:46:11.245Z,94.20
2018-11-11T02:48:38.614Z,94.20
2018-11-11T02:51:06.036Z,94.10
2018-11-11T02:53:33.424Z,94.20
2018-11-11T02:56:00.765Z,94.30
2018-11-11T02:58:28.111Z,94.30
2018-11-11T03:01:03.503Z,94.30
2018-11-11T03:03:32.794Z,94.40
2018-11-11T03:06:00.291Z,94.40
2018-11-11T03:11:05.094Z,94.50
2018-11-11T03:13:32.426Z,95.20
2018-11-11T03:15:59.783Z,95.20
2018-11-11T03:18:27.087Z,95.00
2018-11-11T03:20:54.423Z,94.90
2018-11-11T03:23:21.802Z,95.40
2018-11-11T03:25:49.212Z,95.20
2018-11-11T03:28:16.551Z,95.00
2018-11-11T03:30:43.900Z,95.20
2018-11-11T03:33:11.256Z,94.80
2018-11-11T03:35:38.618Z,94.80
2018-11-11T03:38:06.073Z,94.80
2018-11-11T03:40:33.426Z,95.00
2018-11-11T03:43:00.744Z,94.80
2018-11-11T03:45:28.151Z,94.70
2018-11-11T03:47:55.486Z,94.50
2018-11-11T03:50:22.868Z,94.50
2018-11-11T03:52:50.353Z,94.50
2018-11-11T03:55:17.844Z,94.40
2018-11-11T03:57:45.236Z,94.50
2018-11-11T04:00:13.781Z,94.60
2018-11-11T04:02:41.114Z,94.60
2018-11-11T04:05:09.370Z,94.60
2018-11-11T04:07:36.901Z,95.10
2018-11-11T04:10:05.800Z,94.80
2018-11-11T04:12:33.218Z,94.70
2018-11-11T04:15:00.781Z,94.50
2018-11-11T04:17:28.139Z,94.40
2018-11-11T04:19:55.483Z,94.30
2018-11-11T04:22:23.257Z,94.40
2018-11-11T04:24:51.728Z,94.30
2018-11-11T04:27:19.467Z,94.30
2018-11-11T04:29:46.854Z,94.20
2018-11-11T04:32:14.141Z,94.30
2018-11-11T04:34:42.429Z,94.40
2018-11-11T04:37:12.500Z,94.30
2018-11-11T04:39:40.338Z,94.40
2018-11-11T04:42:07.717Z,94.70
2018-11-11T04:44:36.305Z,94.40
2018-11-11T04:47:03.686Z,94.40
2018-11-11T04:49:30.988Z,94.40
2018-11-11T04:51:58.607Z,94.30
2018-11-11T04:54:25.949Z,94.40
2018-11-11T04:56:53.279Z,94.40
2018-11-11T04:59:20.803Z,94.50
2018-11-11T05:01:48.625Z,94.40
2018-11-11T05:04:15.987Z,94.40
2018-11-11T05:06:43.343Z,94.60
2018-11-11T05:09:12.262Z,94.60
2018-11-11T05:11:39.766Z,94.60
2018-11-11T05:14:07.177Z,94.60
2018-11-11T05:16:34.520Z,95.00
2018-11-11T05:19:01.933Z,95.00
2018-11-11T05:21:29.242Z,95.20
2018-11-11T05:23:56.626Z,95.10
2018-11-11T05:26:23.951Z,95.10
2018-11-11T05:28:51.298Z,95.00
2018-11-11T05:31:19.233Z,95.30
2018-11-11T05:33:46.521Z,95.30
2018-11-11T05:36:13.870Z,95.10
2018-11-11T05:38:41.307Z,95.20
2018-11-11T05:41:08.618Z,95.10
2018-11-11T05:43:36.013Z,95.70
2018-11-11T05:46:03.426Z,95.60
2018-11-11T05:48:30.785Z,95.50
2018-11-11T05:50:58.170Z,95.40
2018-11-11T05:53:25.556Z,95.40
2018-11-11T05:55:52.927Z,95.20
2018-11-11T05:58:20.326Z,95.30
2018-11-11T06:00:48.106Z,95.40
2018-11-11T06:03:15.465Z,95.50
2018-11-11T06:05:42.879Z,95.40
2018-11-11T06:08:10.274Z,95.50
2018-11-11T06:10:37.585Z,95.70
2018-11-11T06:13:04.970Z,95.60
2018-11-11T06:15:32.363Z,95.30
2018-11-11T06:17:59.677Z,95.20
2018-11-11T06:20:27.206Z,95.10
2018-11-11T06:22:55.668Z,95.50
2018-11-11T06:25:26.561Z,95.10
2018-11-11T06:27:54.056Z,95.10
2018-11-11T06:30:22.562Z,94.90
2018-11-11T06:32:49.958Z,94.80
2018-11-11T06:37:51.499Z,94.40
2018-11-11T06:40:18.813Z,94.30
2018-11-11T06:42:46.342Z,94.30
2018-11-11T06:45:14.645Z,94.30
2018-11-11T06:47:43.266Z,94.30
2018-11-11T06:50:11.555Z,94.10
2018-11-11T06:52:39.809Z,94.20
2018-11-11T06:55:09.111Z,94.00
2018-11-11T06:57:38.333Z,93.90
2018-11-11T07:00:07.262Z,93.80
2018-11-11T07:02:37.704Z,93.80
2018-11-11T07:05:06.111Z,93.70
2018-11-11T07:07:33.609Z,93.60
2018-11-11T07:10:01.046Z,93.50
2018-11-11T07:12:28.582Z,93.40
2018-11-11T07:14:55.898Z,93.50
2018-11-11T07:17:23.314Z,93.50
2018-11-11T07:19:50.712Z,93.20
2018-11-11T07:22:18.095Z,93.50
2018-11-11T07:24:45.737Z,93.30
2018-11-11T07:27:13.056Z,93.20
2018-11-11T07:29:40.364Z,93.10
2018-11-11T07:32:07.730Z,93.00
2018-11-11T07:34:35.045Z,92.70
2018-11-11T07:37:02.391Z,92.70
2018-11-11T07:39:29.843Z,93.20
2018-11-11T07:41:57.214Z,92.90
2018-11-11T07:44:24.618Z,92.90
2018-11-11T07:46:51.935Z,92.40
2018-11-11T07:49:19.507Z,92.10
2018-11-11T07:51:46.814Z,91.90
2018-11-11T07:54:14.480Z,91.70
2018-11-11T07:56:41.822Z,91.10
2018-11-11T07:59:09.274Z,90.60
2018-11-11T08:01:36.694Z,90.40
2018-11-11T08:04:04.029Z,88.70
2018-11-11T08:06:31.745Z,86.20
2018-11-11T08:08:59.048Z,81.50
2018-11-11T08:11:38.363Z,77.00
2018-11-11T08:14:05.977Z,73.80
2018-11-11T08:16:34.861Z,70.10
2018-11-11T08:19:06.338Z,68.10
2018-11-11T08:21:34.950Z,66.60
2018-11-11T08:24:03.013Z,61.60
2018-11-11T08:26:30.502Z,59.80
2018-11-11T08:28:58.569Z,58.20
2018-11-11T08:31:26.266Z,56.70
2018-11-11T08:33:53.601Z,53.40
2018-11-11T08:36:21.018Z,49.90
2018-11-11T08:38:48.409Z,46.60
2018-11-11T08:41:15.986Z,43.90
2018-11-11T08:43:43.350Z,42.10
2018-11-11T08:46:11.498Z,40.50
2018-11-11T08:48:39.194Z,39.70
2018-11-11T08:51:08.790Z,38.40
2018-11-11T08:53:36.525Z,37.50
2018-11-11T08:56:06.777Z,35.80
2018-11-11T09:01:11.232Z,33.40
2018-11-11T09:03:42.170Z,32.50
2018-11-11T09:06:11.131Z,31.70
2018-11-11T09:08:38.496Z,30.10
2018-11-11T09:11:09.921Z,29.60
2018-11-11T09:13:42.173Z,29.10
2018-11-11T09:16:29.529Z,28.80
2018-11-11T09:19:01.265Z,28.20
2018-11-11T09:21:29.163Z,28.00
2018-11-11T09:23:56.474Z,27.50
2018-11-11T09:26:23.854Z,26.70
2018-11-11T09:28:51.215Z,26.10
2018-11-11T09:31:18.555Z,25.70
2018-11-11T09:33:45.999Z,25.20
2018-11-11T09:36:13.550Z,25.00
2018-11-11T09:38:40.919Z,24.80
2018-11-11T09:41:08.777Z,24.60
2018-11-11T09:43:36.494Z,24.60
2018-11-11T09:46:03.964Z,24.50
2018-11-11T09:48:31.354Z,24.20
2018-11-11T09:50:58.731Z,23.90
2018-11-11T09:53:26.229Z,23.40
2018-11-11T09:55:53.581Z,23.30
2018-11-11T09:58:20.980Z,23.60
2018-11-11T10:00:50.414Z,23.10
2018-11-11T10:04:26.058Z,22.80
2018-11-11T10:06:59.251Z,22.30
2018-11-11T10:10:37.198Z,21.80
2018-11-11T10:13:17.423Z,21.60
2018-11-11T10:17:53.464Z,21.50
2018-11-11T10:20:40.601Z,21.40
2018-11-11T10:23:17.761Z,21.60
2018-11-11T10:26:08.657Z,21.20
2018-11-11T10:28:46.664Z,20.50
2018-11-11T10:31:19.745Z,20.30
2018-11-11T10:33:54.428Z,19.90
2018-11-11T10:36:26.449Z,19.90
2018-11-11T10:38:59.931Z,19.80
2018-11-11T10:41:36.207Z,19.50
2018-11-11T10:44:06.908Z,19.40
2018-11-11T10:47:05.629Z,19.20
2018-11-11T10:49:37.423Z,19.20
2018-11-11T10:52:05.057Z,19.00
2018-11-11T10:54:32.732Z,18.80
2018-11-11T10:57:00.057Z,18.60
2018-11-11T10:59:27.359Z,18.40
2018-11-11T11:02:03.797Z,18.50
2018-11-11T11:04:31.261Z,18.60
2018-11-11T11:07:04.186Z,18.70
2018-11-11T11:09:31.541Z,18.70
2018-11-11T11:11:58.877Z,18.60
2018-11-11T11:14:26.202Z,18.70
2018-11-11T11:16:53.512Z,19.00
2018-11-11T11:19:21.063Z,19.00
2018-11-11T11:21:50.312Z,19.10
2018-11-11T11:24:17.623Z,19.10
2018-11-11T11:26:44.943Z,19.50
2018-11-11T11:29:12.291Z,18.80
2018-11-11T11:31:39.805Z,18.60
2018-11-11T11:34:07.078Z,18.80
2018-11-11T11:36:34.447Z,18.90
2018-11-11T11:39:01.825Z,18.90
2018-11-11T11:41:29.201Z,18.80
2018-11-11T11:43:56.538Z,18.60
2018-11-11T11:46:23.899Z,18.90
2018-11-11T11:48:51.230Z,19.00
2018-11-11T11:51:19.405Z,18.80
2018-11-11T11:53:46.700Z,19.10
2018-11-11T11:56:14.108Z,19.00
2018-11-11T11:58:41.433Z,19.00
2018-11-11T12:01:09.134Z,19.00
2018-11-11T12:03:36.543Z,18.90
2018-11-11T12:06:03.948Z,18.70
2018-11-11T12:08:31.311Z,18.50
2018-11-11T12:10:58.637Z,18.40
2018-11-11T12:13:25.963Z,18.50
2018-11-11T12:18:32.494Z,19.00
2018-11-11T12:21:03.839Z,19.30
2018-11-11T12:23:33.894Z,20.30
2018-11-11T12:26:04.951Z,22.10
2018-11-11T12:28:35.212Z,22.80
2018-11-11T12:31:03.253Z,22.50
2018-11-11T12:33:33.607Z,22.10
2018-11-11T12:36:07.842Z,21.40
2018-11-11T12:38:36.050Z,21.40
2018-11-11T12:41:05.087Z,21.00
2018-11-11T12:43:33.225Z,21.30
2018-11-11T12:46:00.715Z,22.10
2018-11-11T12:48:28.106Z,21.90
2018-11-11T12:50:55.403Z,21.30
2018-11-11T12:53:25.185Z,20.90
2018-11-11T12:55:54.536Z,20.90
2018-11-11T12:58:24.196Z,20.80
2018-11-11T13:00:51.937Z,21.40
2018-11-11T13:03:19.478Z,22.20
2018-11-11T13:05:46.873Z,22.70
2018-11-11T13:08:14.252Z,23.90
2018-11-11T13:10:41.721Z,25.30
2018-11-11T13:13:09.216Z,26.80
2018-11-11T13:15:36.928Z,28.10
2018-11-11T13:18:04.804Z,29.20
2018-11-11T13:20:32.123Z,30.40
2018-11-11T13:22:59.516Z,31.80
2018-11-11T13:25:26.905Z,33.10
2018-11-11T13:28:00.984Z,33.10
2018-11-11T13:30:30.001Z,33.50
2018-11-11T13:32:57.496Z,32.50
2018-11-11T13:35:25.958Z,30.90
2018-11-11T13:37:53.829Z,29.90
2018-11-11T13:40:21.262Z,30.40
2018-11-11T13:42:48.554Z,32.20
2018-11-11T13:45:17.242Z,33.90
2018-11-11T13:47:45.753Z,34.10
2018-11-11T13:50:27.689Z,32.90
2018-11-11T13:52:55.007Z,31.30
2018-11-11T13:55:22.444Z,30.20
2018-11-11T13:57:50.056Z,30.20
2018-11-11T14:00:19.646Z,30.10
2018-11-11T14:02:47.438Z,30.00
2018-11-11T14:05:15.126Z,29.60
2018-11-11T14:07:42.504Z,29.60
2018-11-11T14:10:11.839Z,29.70
2018-11-11T14:12:39.484Z,29.60
2018-11-11T14:15:17.752Z,29.70
2018-11-11T14:17:45.812Z,29.70
2018-11-11T14:20:14.361Z,29.80
2018-11-11T14:22:42.804Z,30.80
2018-11-11T14:25:13.977Z,32.90
2018-11-11T14:27:41.379Z,35.20
2018-11-11T14:30:16.805Z,37.10
2018-11-11T14:32:44.652Z,38.90
2018-11-11T14:35:12.371Z,40.50
2018-11-11T14:40:16.383Z,43.70
2018-11-11T14:42:44.142Z,45.00
2018-11-11T14:45:12.657Z,46.20
2018-11-11T14:47:40.969Z,47.30
2018-11-11T14:50:09.567Z,48.10
2018-11-11T14:52:37.061Z,49.10
2018-11-11T14:55:13.098Z,50.20
2018-11-11T14:57:40.524Z,51.10
2018-11-11T15:00:10.668Z,51.80
2018-11-11T15:02:38.475Z,52.50
2018-11-11T15:05:07.716Z,53.20
2018-11-11T15:07:35.024Z,53.70
2018-11-11T15:10:02.525Z,54.50
2018-11-11T15:12:29.837Z,55.50
2018-11-11T15:14:57.163Z,56.10
2018-11-11T15:17:24.482Z,56.40
2018-11-11T15:22:25.569Z,58.00
2018-11-11T15:24:52.874Z,58.60
2018-11-11T15:27:20.194Z,59.30
2018-11-11T15:29:51.174Z,60.00
2018-11-11T15:32:18.558Z,61.40
2018-11-11T15:34:45.908Z,62.30
2018-11-11T15:37:13.231Z,63.20
2018-11-11T15:39:40.757Z,64.20
2018-11-11T15:42:08.184Z,65.50
2018-11-11T15:44:35.514Z,66.40
2018-11-11T15:47:02.821Z,66.40
2018-11-11T15:49:32.456Z,66.70
2018-11-11T15:52:09.616Z,67.30
2018-11-11T15:54:40.977Z,69.30
2018-11-11T15:57:11.075Z,70.50
2018-11-11T15:59:38.438Z,70.70
2018-11-11T16:02:11.301Z,71.20
2018-11-11T16:04:40.465Z,72.00
2018-11-11T16:07:10.986Z,73.20
2018-11-11T16:09:41.260Z,73.80
2018-11-11T16:12:08.998Z,74.40
2018-11-11T16:14:36.360Z,74.30
2018-11-11T16:17:03.953Z,74.10
2018-11-11T16:19:31.384Z,74.10
2018-11-11T16:21:58.962Z,74.70
2018-11-11T16:24:27.442Z,75.90
2018-11-11T16:27:02.973Z,76.70
2018-11-11T16:29:32.757Z,77.20
2018-11-11T16:32:01.803Z,77.80
2018-11-11T16:34:29.214Z,78.10
2018-11-11T16:36:56.615Z,78.00
2018-11-11T16:39:24.092Z,78.50
2018-11-11T16:41:51.527Z,78.50
2018-11-11T16:44:18.953Z,79.30
2018-11-11T16:46:46.914Z,79.90
2018-11-11T16:49:14.845Z,79.60
2018-11-11T16:51:42.172Z,80.40
2018-11-11T16:54:09.604Z,80.60
2018-11-11T16:56:36.928Z,80.60
2018-11-11T16:59:04.694Z,80.90
2018-11-11T17:01:32.026Z,80.70
2018-11-11T17:04:03.496Z,81.20
2018-11-11T17:06:30.861Z,82.00
2018-11-11T17:08:58.217Z,82.20
2018-11-11T17:11:25.944Z,82.70
2018-11-11T17:13:53.297Z,83.60
2018-11-11T17:16:20.890Z,84.40
2018-11-11T17:18:48.385Z,84.40
2018-11-11T17:21:17.311Z,85.30
2018-11-11T17:23:47.561Z,85.80
2018-11-11T17:26:14.974Z,85.90
2018-11-11T17:28:42.338Z,86.30
2018-11-11T17:31:09.742Z,87.20
2018-11-11T17:33:40.803Z,87.30
2018-11-11T17:36:09.118Z,88.80
2018-11-11T17:38:37.116Z,89.00
2018-11-11T17:44:09.342Z,88.40
2018-11-11T17:46:37.342Z,88.80
2018-11-11T17:49:06.456Z,88.60
2018-11-11T17:51:35.195Z,87.90
2018-11-11T17:54:02.742Z,87.20
2018-11-11T17:56:30.714Z,86.60
2018-11-11T17:58:58.066Z,87.60
2018-11-11T18:01:25.514Z,88.10
2018-11-11T18:03:53.194Z,88.80
2018-11-11T18:06:20.623Z,89.50
2018-11-11T18:08:48.080Z,89.80
2018-11-11T18:11:15.611Z,89.70
2018-11-11T18:13:42.975Z,89.60
2018-11-11T18:16:10.329Z,90.00
2018-11-11T18:18:38.202Z,90.20
2018-11-11T18:21:05.546Z,90.40
2018-11-11T18:23:32.975Z,90.50
2018-11-11T18:26:00.330Z,90.70
2018-11-11T18:28:27.693Z,90.80
2018-11-11T18:30:55.497Z,90.80
2018-11-11T18:33:23.157Z,90.90
2018-11-11T18:35:50.570Z,90.90
2018-11-11T18:38:17.947Z,91.10
2018-11-11T18:40:45.278Z,91.50
2018-11-11T18:43:12.599Z,91.30
2018-11-11T18:45:40.370Z,91.00
2018-11-11T18:48:07.792Z,90.80
2018-11-11T18:50:35.159Z,91.00
2018-11-11T18:53:03.201Z,91.20
2018-11-11T18:55:31.079Z,91.30
2018-11-11T18:57:58.488Z,91.50
2018-11-11T19:00:31.043Z,91.40
2018-11-11T19:03:02.863Z,91.40
2018-11-11T19:05:33.014Z,91.20
2018-11-11T19:08:00.605Z,91.30
2018-11-11T19:12:10.329Z,91.30
2018-11-11T19:14:37.822Z,91.10
2018-11-11T19:17:05.337Z,90.90
2018-11-11T19:19:32.721Z,91.00
2018-11-11T19:22:00.070Z,91.00
2018-11-11T19:24:27.459Z,90.80
2018-11-11T19:26:54.957Z,91.00
2018-11-11T19:29:22.353Z,91.30
2018-11-11T19:31:49.877Z,91.10
2018-11-11T19:34:17.524Z,91.30
2018-11-11T19:36:45.194Z,91.20
2018-11-11T19:39:13.384Z,91.20
2018-11-11T19:41:41.340Z,91.00
2018-11-11T19:44:09.222Z,90.90
2018-11-11T19:46:36.667Z,91.20
2018-11-11T19:49:04.219Z,91.00
2018-11-11T19:51:31.603Z,90.90
2018-11-11T19:53:59.607Z,90.90
2018-11-11T19:56:27.618Z,90.90
2018-11-11T19:58:54.942Z,91.00
2018-11-11T20:01:22.343Z,91.00
2018-11-11T20:03:50.067Z,90.80
2018-11-11T20:06:17.403Z,90.70
2018-11-11T20:11:26.962Z,91.00
2018-11-11T20:13:54.414Z,91.30
2018-11-11T20:16:28.629Z,91.40
2018-11-11T20:18:55.992Z,91.50
2018-11-11T20:21:23.342Z,91.60
2018-11-11T20:23:50.710Z,91.70
2018-11-11T20:26:18.049Z,91.90
2018-11-11T20:28:45.430Z,91.90
2018-11-11T20:31:12.860Z,91.90
2018-11-11T20:33:40.208Z,91.80
2018-11-11T20:36:07.888Z,91.60
2018-11-11T20:38:35.246Z,91.40
2018-11-11T20:41:02.637Z,91.20
2018-11-11T20:43:31.442Z,91.40
2018-11-11T20:45:58.943Z,91.80
2018-11-11T20:48:26.434Z,92.10
2018-11-11T20:50:54.159Z,92.20
2018-11-11T20:53:21.545Z,92.40
2018-11-11T20:55:48.934Z,92.60
2018-11-11T20:58:16.295Z,92.80
2018-11-11T21:00:43.641Z,92.90
2018-11-11T21:03:10.987Z,92.90
2018-11-11T21:05:38.277Z,92.80
2018-11-11T21:08:05.806Z,92.50
2018-11-11T21:10:33.221Z,92.30
2018-11-11T21:13:00.570Z,92.20
2018-11-11T21:15:29.166Z,92.10
2018-11-11T21:17:56.530Z,91.90
2018-11-11T21:20:28.193Z,91.80
2018-11-11T21:22:55.650Z,91.80
2018-11-11T21:25:23.437Z,91.90
2018-11-11T21:27:51.429Z,92.10
2018-11-11T21:30:21.985Z,92.30
2018-11-11T21:32:49.538Z,92.60
2018-11-11T21:35:16.921Z,92.80
2018-11-11T21:37:44.539Z,93.00
2018-11-11T21:40:13.939Z,92.80
2018-11-11T21:42:44.261Z,92.50
2018-11-11T21:45:12.939Z,92.30
2018-11-11T21:47:40.765Z,92.40
2018-11-11T21:50:09.919Z,92.40
2018-11-11T21:52:37.373Z,92.30
2018-11-11T21:55:06.908Z,92.30
2018-11-11T21:57:34.432Z,92.20
2018-11-11T22:00:01.821Z,92.20
2018-11-11T22:02:29.277Z,92.20
2018-11-11T22:04:56.622Z,92.00
2018-11-11T22:07:23.974Z,92.00
2018-11-11T22:09:51.784Z,92.30
2018-11-11T22:12:19.271Z,92.30
2018-11-11T22:14:46.627Z,92.30
2018-11-11T22:17:14.067Z,92.30
2018-11-11T22:19:41.384Z,92.00
2018-11-11T22:22:08.737Z,91.90
2018-11-11T22:24:37.283Z,91.80
2018-11-11T22:27:08.651Z,92.00
2018-11-11T22:29:37.133Z,91.80
2018-11-11T22:32:04.714Z,92.00
2018-11-11T22:34:32.346Z,92.00
2018-11-11T22:36:59.797Z,91.90
2018-11-11T22:39:27.220Z,92.30
2018-11-11T22:41:54.651Z,92.30
2018-11-11T22:44:22.074Z,92.30
2018-11-11T22:46:54.179Z,92.10
2018-11-11T22:49:21.594Z,91.90
2018-11-11T22:51:48.937Z,91.70
2018-11-11T22:56:49.758Z,92.10
2018-11-11T22:59:17.756Z,92.30
2018-11-11T23:01:45.089Z,92.30
2018-11-11T23:04:12.380Z,92.10
2018-11-11T23:06:39.786Z,91.90
2018-11-11T23:09:08.893Z,91.80
2018-11-11T23:11:36.294Z,91.80
2018-11-11T23:14:06.308Z,91.70
2018-11-11T23:16:33.720Z,91.50
2018-11-11T23:19:01.097Z,91.70
2018-11-11T23:21:29.069Z,91.90
2018-11-11T23:23:56.463Z,92.00
2018-11-11T23:26:23.844Z,92.30
2018-11-11T23:28:51.310Z,92.30
2018-11-11T23:31:18.695Z,92.30
2018-11-11T23:33:46.011Z,92.20
2018-11-11T23:36:13.370Z,92.20
2018-11-11T23:38:40.799Z,92.10
2018-11-11T23:41:08.106Z,92.20
2018-11-11T23:43:35.468Z,92.20
2018-11-11T23:46:02.867Z,92.20
2018-11-11T23:48:30.290Z,92.30
2018-11-11T23:50:57.916Z,92.30
2018-11-11T23:53:25.535Z,92.20
2018-11-11T23:55:52.928Z,92.50
2018-11-11T23:58:20.622Z,92.60
